Terminal Aerodrome Forecast
Issued by NWS Raleigh/Durham, NC

Home | Current Version | Previous Version | Text Only | Print | Product List | Glossary On
Versions: 1 2 3 4 5 6 7 8 9 10 11 12 13 14 15 16 17 18 19 20 21 22 23 24 25 26 27 28 29 30 31 32
000
FTUS42 KRAH 011126
TAFRDU
TAF
KRDU 011126Z 0112/0212 17003KT 1SM BR OVC002
      TEMPO 0112/0113 1/2SM FG VV001
     FM011400 12004KT P6SM SCT010 SCT040
     FM011500 18007KT P6SM BKN045
     FM020300 VRB02KT 2SM BR SCT003=

USA.gov is the U.S. government's official web portal to all federal, state and local government web resources and services.